createdAt,value
2018-09-05T00:00:12.089Z,25.799999
2018-09-05T00:05:14.627Z,35
2018-09-05T00:10:16.647Z,38.5
2018-09-05T00:15:18.928Z,38.400002
2018-09-05T00:20:21.334Z,25.5
2018-09-05T00:25:23.658Z,34.099998
2018-09-05T00:30:25.818Z,35.700001
2018-09-05T00:35:28.034Z,18.200001
2018-09-05T00:40:30.594Z,23.200001
2018-09-05T00:45:32.718Z,38.299999
2018-09-05T00:50:35.067Z,49.700001
2018-09-05T00:55:37.330Z,63.099998
2018-09-05T01:00:39.731Z,70.5
2018-09-05T01:05:42.012Z,76.800003
2018-09-05T01:10:44.182Z,39.099998
2018-09-05T01:15:46.434Z,40
2018-09-05T01:20:48.991Z,109.800003
2018-09-05T01:25:51.075Z,49.099998
2018-09-05T01:30:53.703Z,57.400002
2018-09-05T01:35:55.630Z,110.199997
2018-09-05T01:40:57.932Z,68.099998
2018-09-05T01:46:00.461Z,109.199997
2018-09-05T01:51:02.838Z,113.800003
2018-09-05T01:56:05.754Z,68.199997
2018-09-05T02:01:07.074Z,123
2018-09-05T02:06:09.420Z,40.299999
2018-09-05T02:11:11.715Z,100.599998
2018-09-05T02:16:14.142Z,53.799999
2018-09-05T02:21:16.407Z,91.199997
2018-09-05T02:26:18.696Z,56.700001
2018-09-05T02:31:20.941Z,36.099998
2018-09-05T02:36:23.449Z,77.900002
2018-09-05T02:41:25.544Z,99.300003
2018-09-05T02:46:27.963Z,69.199997
2018-09-05T02:51:30.089Z,70.199997
2018-09-05T02:56:32.308Z,61.299999
2018-09-05T03:01:34.788Z,59.799999
2018-09-05T03:06:36.989Z,64.5
2018-09-05T03:11:39.357Z,77.699997
2018-09-05T03:16:41.529Z,54.700001
2018-09-05T03:21:43.847Z,53
2018-09-05T03:26:46.242Z,85.5
2018-09-05T03:31:48.456Z,119.199997
2018-09-05T03:36:50.790Z,69.599998
2018-09-05T03:41:52.959Z,64.300003
2018-09-05T03:46:55.293Z,84.699997
2018-09-05T03:51:57.739Z,73.300003
2018-09-05T03:56:59.848Z,90.199997
2018-09-05T04:02:02.859Z,81.099998
2018-09-05T04:07:04.584Z,102.5
2018-09-05T04:12:06.840Z,95.699997
2018-09-05T04:17:10.385Z,99.800003
2018-09-05T04:22:11.650Z,130.899994
2018-09-05T04:27:13.704Z,135.399994
2018-09-05T04:32:16.041Z,150.899994
2018-09-05T04:37:18.245Z,131.699997
2018-09-05T04:42:20.740Z,163.199997
2018-09-05T04:47:22.877Z,119
2018-09-05T04:52:25.179Z,112.099998
2018-09-05T04:57:27.462Z,140.300003
2018-09-05T05:02:29.819Z,133.100006
2018-09-05T05:07:31.994Z,178.800003
2018-09-05T05:12:34.352Z,134.399994
2018-09-05T05:17:36.613Z,166.899994
2018-09-05T05:22:39.133Z,137.800003
2018-09-05T05:27:41.214Z,91.800003
2018-09-05T05:32:43.784Z,129.100006
2018-09-05T05:37:45.817Z,173
2018-09-05T05:42:48.116Z,106.400002
2018-09-05T05:47:50.398Z,154.399994
2018-09-05T05:52:52.696Z,162.5
2018-09-05T05:57:55.008Z,168.699997
2018-09-05T06:02:57.402Z,169.300003
2018-09-05T06:07:59.692Z,124.800003
2018-09-05T06:13:01.983Z,154.5
2018-09-05T06:18:04.312Z,167.800003
2018-09-05T06:23:06.549Z,161.100006
2018-09-05T06:28:08.726Z,115
2018-09-05T06:33:10.983Z,63.599998
2018-09-05T06:38:13.478Z,105.199997
2018-09-05T06:43:15.627Z,73.199997
2018-09-05T06:48:17.963Z,64.699997
2018-09-05T06:53:20.258Z,64.5
2018-09-05T06:58:22.797Z,58.799999
2018-09-05T07:03:24.806Z,77.099998
2018-09-05T07:08:27.115Z,86.800003
2018-09-05T07:13:29.452Z,58.700001
2018-09-05T07:18:31.646Z,106.400002
2018-09-05T07:23:34.133Z,80.099998
2018-09-05T07:28:36.409Z,60.099998
2018-09-05T07:33:38.749Z,48.400002
2018-09-05T07:38:40.937Z,58.900002
2018-09-05T07:43:43.317Z,48
2018-09-05T07:48:45.506Z,47.5
2018-09-05T07:53:47.875Z,31
2018-09-05T07:58:50.042Z,50.900002
2018-09-05T08:03:52.343Z,58.700001
2018-09-05T08:08:54.604Z,43.900002
2018-09-05T08:13:57.011Z,24.200001
2018-09-05T08:18:59.245Z,39.200001
2018-09-05T08:24:01.534Z,30.799999
2018-09-05T08:29:04.103Z,36.299999
2018-09-05T08:34:06.169Z,19.700001
2018-09-05T08:39:08.463Z,27.5
2018-09-05T08:44:10.873Z,21.4
2018-09-05T08:49:12.969Z,19.5
2018-09-05T08:54:15.394Z,23.700001
2018-09-05T08:59:17.589Z,26.700001
2018-09-05T09:04:21.321Z,27.5
2018-09-05T09:09:22.214Z,29.299999
2018-09-05T09:14:24.553Z,21.9
2018-09-05T09:19:26.713Z,22.6
2018-09-05T09:24:29.111Z,28.1
2018-09-05T09:29:31.362Z,24.200001
2018-09-05T09:34:33.570Z,29.200001
2018-09-05T09:39:36.053Z,19.799999
2018-09-05T09:44:39.738Z,31.700001
2018-09-05T09:49:40.549Z,22.4
2018-09-05T09:54:42.904Z,21.5
2018-09-05T09:59:45.200Z,19.5
2018-09-05T10:04:47.479Z,19.799999
2018-09-05T10:09:49.890Z,33.400002
2018-09-05T10:14:52.198Z,39.099998
2018-09-05T10:19:54.620Z,29.200001
2018-09-05T10:24:56.573Z,25.1
2018-09-05T10:29:58.872Z,40.5
2018-09-05T10:35:01.264Z,32.799999
2018-09-05T10:40:03.612Z,34.299999
2018-09-05T10:45:05.839Z,37.099998
2018-09-05T10:50:08.094Z,33.799999
2018-09-05T10:55:10.535Z,42.400002
2018-09-05T11:00:12.731Z,28.6
2018-09-05T11:05:14.997Z,41.299999
2018-09-05T11:10:17.233Z,44.400002
2018-09-05T11:15:21.116Z,57.400002
2018-09-05T11:20:21.886Z,25.799999
2018-09-05T11:25:25.467Z,36.900002
2018-09-05T11:30:26.812Z,34.200001
2018-09-05T11:35:28.804Z,34.799999
2018-09-05T11:40:31.060Z,29.200001
2018-09-05T11:45:33.308Z,38.200001
2018-09-05T11:50:35.626Z,33.5
2018-09-05T11:55:37.984Z,29.9
2018-09-05T12:00:40.367Z,33.599998
2018-09-05T12:05:42.443Z,38.299999
2018-09-05T12:10:44.769Z,45.799999
2018-09-05T12:15:47.156Z,27.6
2018-09-05T12:20:49.465Z,35.299999
2018-09-05T12:25:51.746Z,30.6
2018-09-05T12:30:54.630Z,40.299999
2018-09-05T12:35:56.297Z,37.799999
2018-09-05T12:40:58.562Z,41.200001
2018-09-05T12:46:00.901Z,33.900002
2018-09-05T12:51:04.482Z,36.299999
2018-09-05T12:56:06.471Z,40.599998
2018-09-05T13:01:08.113Z,40.900002
2018-09-05T13:06:10.064Z,35.099998
2018-09-05T13:11:12.360Z,31.5
2018-09-05T13:16:14.668Z,36.900002
2018-09-05T13:21:17.023Z,32.200001
2018-09-05T13:26:19.270Z,37
2018-09-05T13:31:21.458Z,49.900002
2018-09-05T13:36:23.787Z,27.700001
2018-09-05T13:41:26.101Z,31.9
2018-09-05T13:46:28.530Z,35.900002
2018-09-05T13:51:30.707Z,36.299999
2018-09-05T13:56:34.555Z,28.1
2018-09-05T14:01:35.212Z,29.9
2018-09-05T14:06:37.638Z,33.400002
2018-09-05T14:11:39.823Z,32.299999
2018-09-05T14:16:42.169Z,26.700001
2018-09-05T14:21:44.562Z,29.799999
2018-09-05T14:26:46.698Z,31.799999
2018-09-05T14:31:50.586Z,34.599998
2018-09-05T14:36:51.516Z,30.1
2018-09-05T14:41:53.803Z,24
2018-09-05T14:46:55.924Z,32.200001
2018-09-05T14:51:58.289Z,31.4
2018-09-05T14:58:13.003Z,28.1
2018-09-05T15:02:02.879Z,21.700001
2018-09-05T15:07:05.146Z,21.4
2018-09-05T15:13:26.758Z,26.5
2018-09-05T15:17:09.824Z,28.799999
2018-09-05T15:22:12.006Z,26.6
2018-09-05T15:27:14.236Z,25.6
2018-09-05T15:32:16.599Z,31.299999
2018-09-05T15:38:03.557Z,28.4
2018-09-05T15:42:21.186Z,23.799999
2018-09-05T15:49:26.315Z,35.900002
2018-09-05T15:52:25.759Z,31.799999
2018-09-05T15:57:38.123Z,23.9
2018-09-05T16:02:34.593Z,32.200001
2018-09-05T16:07:42.167Z,29
2018-09-05T16:12:34.896Z,27.4
2018-09-05T16:17:37.260Z,18
2018-09-05T16:22:39.542Z,24.1
2018-09-05T16:27:41.862Z,28.299999
2018-09-05T16:32:44.158Z,28.299999
2018-09-05T16:37:46.397Z,30.5
2018-09-05T16:42:48.652Z,20.700001
2018-09-05T16:47:51.021Z,23.700001
2018-09-05T16:52:53.233Z,19.5
2018-09-05T16:57:55.589Z,13.6
2018-09-05T17:02:57.904Z,17.700001
2018-09-05T17:08:00.182Z,27.5
2018-09-05T17:13:02.424Z,20.5
2018-09-05T17:18:04.689Z,26.200001
2018-09-05T17:23:06.986Z,22.700001
2018-09-05T17:28:09.362Z,20.5
2018-09-05T17:33:11.628Z,9.9
2018-09-05T17:38:14.040Z,12.1
2018-09-05T17:43:20.392Z,5.7
2018-09-05T17:48:20.367Z,6.4
2018-09-05T17:53:20.773Z,6.3
2018-09-05T17:58:23.118Z,6.1
2018-09-05T18:03:25.512Z,6
2018-09-05T18:08:27.624Z,14.3
2018-09-05T18:13:30.052Z,23.200001
2018-09-05T18:18:32.309Z,13.5
2018-09-05T18:23:34.611Z,15.2
2018-09-05T18:28:36.885Z,14.2
2018-09-05T18:33:39.342Z,19
2018-09-05T18:38:41.401Z,18
2018-09-05T18:43:43.790Z,17.1
2018-09-05T18:48:46.139Z,12.6
2018-09-05T18:53:48.447Z,17.1
2018-09-05T18:58:50.674Z,15.6
2018-09-05T19:03:52.961Z,15.1
2018-09-05T19:08:55.270Z,16
2018-09-05T19:13:57.632Z,16.5
2018-09-05T19:18:59.878Z,17.799999
2018-09-05T19:24:02.162Z,24.299999
2018-09-05T19:29:04.535Z,22.5
2018-09-05T19:34:06.631Z,25.4
2018-09-05T19:39:09.056Z,23.4
2018-09-05T19:44:11.247Z,17
2018-09-05T19:49:13.693Z,22.4
2018-09-05T19:54:15.932Z,9.8
2018-09-05T19:59:18.228Z,8.3
2018-09-05T20:04:20.641Z,10.7
2018-09-05T20:09:22.833Z,11.6
2018-09-05T20:14:25.192Z,12
2018-09-05T20:19:27.496Z,11.9
2018-09-05T20:24:29.688Z,12
2018-09-05T20:29:32.067Z,39
2018-09-05T20:34:34.195Z,23.1
2018-09-05T20:39:36.551Z,29.5
2018-09-05T20:44:38.881Z,31
2018-09-05T20:49:41.147Z,26.9
2018-09-05T20:54:44.724Z,21.9
2018-09-05T20:59:46.743Z,24.299999
2018-09-05T21:04:48.003Z,23.1
2018-09-05T21:09:50.330Z,27.799999
2018-09-05T21:14:52.653Z,35.799999
2018-09-05T21:19:54.886Z,21.4
2018-09-05T21:24:57.294Z,24.9
2018-09-05T21:29:59.431Z,28.200001
2018-09-05T21:35:01.869Z,15.7
2018-09-05T21:40:04.504Z,32.599998
2018-09-05T21:45:06.455Z,26.1
2018-09-05T21:50:08.714Z,41.400002
2018-09-05T21:55:10.997Z,44.700001
2018-09-05T22:00:13.331Z,64.599998
2018-09-05T22:05:15.564Z,37.200001
2018-09-05T22:10:17.842Z,48.5
2018-09-05T22:15:24.362Z,34.099998
2018-09-05T22:20:22.508Z,48
2018-09-05T22:25:24.779Z,67.699997
2018-09-05T22:30:27.084Z,55.5
2018-09-05T22:35:29.257Z,41.700001
2018-09-05T22:40:31.636Z,44.900002
2018-09-05T22:45:33.890Z,46.700001
2018-09-05T22:50:36.241Z,40.799999
2018-09-05T22:55:38.522Z,37.5
2018-09-05T23:00:40.783Z,32.5
2018-09-05T23:05:43.066Z,57
2018-09-05T23:10:45.429Z,42.099998
2018-09-05T23:15:47.750Z,32.5
2018-09-05T23:20:49.976Z,41.900002
2018-09-05T23:25:52.375Z,31.299999
2018-09-05T23:30:54.683Z,33.400002
2018-09-05T23:35:56.919Z,44.099998
2018-09-05T23:40:59.202Z,36.200001
2018-09-05T23:46:01.459Z,35.700001
2018-09-05T23:51:03.778Z,28.799999
2018-09-05T23:56:06.060Z,51.5
